sensor_id;sensor_type;location;lat;lon;timestamp;P1;durP1;ratioP1;P2;durP2;ratioP2
23531;SDS011;11943;52.270;20.978;2023-11-18T00:02:22;23.02;;;12.98;;
23531;SDS011;11943;52.270;20.978;2023-11-18T00:04:49;20.52;;;12.55;;
23531;SDS011;11943;52.270;20.978;2023-11-18T00:07:16;24.02;;;12.82;;
23531;SDS011;11943;52.270;20.978;2023-11-18T00:09:42;20.08;;;12.20;;
23531;SDS011;11943;52.270;20.978;2023-11-18T00:12:10;21.98;;;12.82;;
23531;SDS011;11943;52.270;20.978;2023-11-18T00:14:37;19.38;;;11.50;;
23531;SDS011;11943;52.270;20.978;2023-11-18T00:17:02;20.83;;;11.32;;
23531;SDS011;11943;52.270;20.978;2023-11-18T00:19:29;20.98;;;12.48;;
23531;SDS011;11943;52.270;20.978;2023-11-18T00:21:55;18.85;;;11.20;;
23531;SDS011;11943;52.270;20.978;2023-11-18T00:24:20;20.05;;;10.73;;
23531;SDS011;11943;52.270;20.978;2023-11-18T00:26:46;17.65;;;10.77;;
23531;SDS011;11943;52.270;20.978;2023-11-18T00:29:12;19.52;;;11.57;;
23531;SDS011;11943;52.270;20.978;2023-11-18T00:31:37;16.23;;;10.43;;
23531;SDS011;11943;52.270;20.978;2023-11-18T00:34:03;18.67;;;11.60;;
23531;SDS011;11943;52.270;20.978;2023-11-18T00:36:28;17.27;;;10.73;;
23531;SDS011;11943;52.270;20.978;2023-11-18T00:38:54;18.95;;;11.82;;
23531;SDS011;11943;52.270;20.978;2023-11-18T00:41:20;19.52;;;11.80;;
23531;SDS011;11943;52.270;20.978;2023-11-18T00:43:46;17.13;;;11.45;;
23531;SDS011;11943;52.270;20.978;2023-11-18T00:46:12;19.10;;;10.32;;
23531;SDS011;11943;52.270;20.978;2023-11-18T00:48:38;14.18;;;9.48;;
23531;SDS011;11943;52.270;20.978;2023-11-18T00:51:05;17.58;;;11.20;;
23531;SDS011;11943;52.270;20.978;2023-11-18T00:53:31;14.10;;;9.63;;
23531;SDS011;11943;52.270;20.978;2023-11-18T00:55:57;17.52;;;10.25;;
23531;SDS011;11943;52.270;20.978;2023-11-18T00:58:22;15.35;;;9.32;;
23531;SDS011;11943;52.270;20.978;2023-11-18T01:00:48;18.25;;;10.07;;
23531;SDS011;11943;52.270;20.978;2023-11-18T01:03:13;17.45;;;11.00;;
23531;SDS011;11943;52.270;20.978;2023-11-18T01:05:39;16.27;;;10.55;;
23531;SDS011;11943;52.270;20.978;2023-11-18T01:08:05;18.52;;;10.20;;
23531;SDS011;11943;52.270;20.978;2023-11-18T01:10:31;18.33;;;10.00;;
23531;SDS011;11943;52.270;20.978;2023-11-18T01:12:57;20.35;;;10.32;;
23531;SDS011;11943;52.270;20.978;2023-11-18T01:15:23;18.38;;;10.77;;
23531;SDS011;11943;52.270;20.978;2023-11-18T01:17:49;12.60;;;9.05;;
23531;SDS011;11943;52.270;20.978;2023-11-18T01:20:14;16.20;;;10.40;;
23531;SDS011;11943;52.270;20.978;2023-11-18T01:22:46;15.95;;;9.73;;
23531;SDS011;11943;52.270;20.978;2023-11-18T01:25:13;17.10;;;9.55;;
23531;SDS011;11943;52.270;20.978;2023-11-18T01:27:42;16.67;;;9.90;;
23531;SDS011;11943;52.270;20.978;2023-11-18T01:30:07;13.63;;;8.77;;
23531;SDS011;11943;52.270;20.978;2023-11-18T01:32:35;16.27;;;9.88;;
23531;SDS011;11943;52.270;20.978;2023-11-18T01:35:00;15.00;;;8.93;;
23531;SDS011;11943;52.270;20.978;2023-11-18T01:37:26;14.32;;;9.45;;
23531;SDS011;11943;52.270;20.978;2023-11-18T01:39:51;14.35;;;9.43;;
23531;SDS011;11943;52.270;20.978;2023-11-18T01:42:17;13.35;;;9.32;;
23531;SDS011;11943;52.270;20.978;2023-11-18T01:44:43;14.88;;;9.63;;
23531;SDS011;11943;52.270;20.978;2023-11-18T01:47:08;15.65;;;8.85;;
23531;SDS011;11943;52.270;20.978;2023-11-18T01:49:37;14.52;;;9.52;;
23531;SDS011;11943;52.270;20.978;2023-11-18T01:52:05;13.70;;;8.70;;
23531;SDS011;11943;52.270;20.978;2023-11-18T01:56:59;11.87;;;6.67;;
23531;SDS011;11943;52.270;20.978;2023-11-18T01:59:28;12.70;;;8.38;;
23531;SDS011;11943;52.270;20.978;2023-11-18T02:01:55;15.02;;;8.93;;
23531;SDS011;11943;52.270;20.978;2023-11-18T02:04:24;12.13;;;8.13;;
23531;SDS011;11943;52.270;20.978;2023-11-18T02:06:50;14.18;;;9.25;;
23531;SDS011;11943;52.270;20.978;2023-11-18T02:09:18;13.27;;;8.27;;
23531;SDS011;11943;52.270;20.978;2023-11-18T02:14:41;10.93;;;7.65;;
23531;SDS011;11943;52.270;20.978;2023-11-18T02:17:10;13.02;;;7.85;;
23531;SDS011;11943;52.270;20.978;2023-11-18T02:19:39;11.43;;;7.90;;
23531;SDS011;11943;52.270;20.978;2023-11-18T02:22:06;12.07;;;7.18;;
23531;SDS011;11943;52.270;20.978;2023-11-18T02:24:33;11.68;;;7.20;;
23531;SDS011;11943;52.270;20.978;2023-11-18T02:27:02;11.30;;;8.15;;
23531;SDS011;11943;52.270;20.978;2023-11-18T02:29:32;11.80;;;7.50;;
23531;SDS011;11943;52.270;20.978;2023-11-18T02:32:11;10.63;;;7.20;;
23531;SDS011;11943;52.270;20.978;2023-11-18T02:35:11;8.95;;;6.78;;
23531;SDS011;11943;52.270;20.978;2023-11-18T02:37:39;8.93;;;6.72;;
23531;SDS011;11943;52.270;20.978;2023-11-18T02:40:08;9.98;;;7.15;;
23531;SDS011;11943;52.270;20.978;2023-11-18T02:42:40;9.52;;;6.90;;
23531;SDS011;11943;52.270;20.978;2023-11-18T02:45:08;9.30;;;6.78;;
23531;SDS011;11943;52.270;20.978;2023-11-18T02:47:37;10.15;;;6.50;;
23531;SDS011;11943;52.270;20.978;2023-11-18T02:50:04;10.32;;;7.05;;
23531;SDS011;11943;52.270;20.978;2023-11-18T02:52:36;9.98;;;6.97;;
23531;SDS011;11943;52.270;20.978;2023-11-18T02:55:05;11.88;;;7.13;;
23531;SDS011;11943;52.270;20.978;2023-11-18T02:57:32;10.30;;;6.90;;
23531;SDS011;11943;52.270;20.978;2023-11-18T02:59:58;11.93;;;6.93;;
23531;SDS011;11943;52.270;20.978;2023-11-18T03:02:25;13.38;;;7.28;;
23531;SDS011;11943;52.270;20.978;2023-11-18T03:04:55;9.73;;;6.53;;
23531;SDS011;11943;52.270;20.978;2023-11-18T03:07:20;13.30;;;7.05;;
23531;SDS011;11943;52.270;20.978;2023-11-18T03:09:46;12.15;;;6.10;;
23531;SDS011;11943;52.270;20.978;2023-11-18T03:12:12;8.70;;;6.85;;
23531;SDS011;11943;52.270;20.978;2023-11-18T03:14:38;9.90;;;6.72;;
23531;SDS011;11943;52.270;20.978;2023-11-18T03:17:04;9.02;;;6.55;;
23531;SDS011;11943;52.270;20.978;2023-11-18T03:22:00;7.43;;;5.63;;
23531;SDS011;11943;52.270;20.978;2023-11-18T03:24:26;8.43;;;6.40;;
23531;SDS011;11943;52.270;20.978;2023-11-18T03:26:54;8.65;;;6.55;;
23531;SDS011;11943;52.270;20.978;2023-11-18T03:29:20;6.17;;;4.70;;
23531;SDS011;11943;52.270;20.978;2023-11-18T03:31:45;9.65;;;6.25;;
23531;SDS011;11943;52.270;20.978;2023-11-18T03:34:13;8.13;;;6.30;;
23531;SDS011;11943;52.270;20.978;2023-11-18T03:36:45;10.02;;;6.80;;
23531;SDS011;11943;52.270;20.978;2023-11-18T03:39:13;12.00;;;7.50;;
23531;SDS011;11943;52.270;20.978;2023-11-18T03:41:39;9.38;;;7.07;;
23531;SDS011;11943;52.270;20.978;2023-11-18T03:44:10;8.70;;;6.18;;
23531;SDS011;11943;52.270;20.978;2023-11-18T03:46:38;11.13;;;6.47;;
23531;SDS011;11943;52.270;20.978;2023-11-18T03:49:06;9.57;;;6.40;;
23531;SDS011;11943;52.270;20.978;2023-11-18T03:51:31;11.65;;;6.85;;
23531;SDS011;11943;52.270;20.978;2023-11-18T03:53:57;9.52;;;6.82;;
23531;SDS011;11943;52.270;20.978;2023-11-18T03:56:23;8.90;;;6.60;;
23531;SDS011;11943;52.270;20.978;2023-11-18T03:58:48;9.55;;;6.60;;
23531;SDS011;11943;52.270;20.978;2023-11-18T04:01:24;11.35;;;7.72;;
23531;SDS011;11943;52.270;20.978;2023-11-18T04:03:54;8.93;;;6.60;;
23531;SDS011;11943;52.270;20.978;2023-11-18T04:06:20;9.48;;;7.05;;
23531;SDS011;11943;52.270;20.978;2023-11-18T04:08:46;9.40;;;6.80;;
23531;SDS011;11943;52.270;20.978;2023-11-18T04:11:13;8.82;;;6.20;;
23531;SDS011;11943;52.270;20.978;2023-11-18T04:13:40;10.20;;;6.97;;
23531;SDS011;11943;52.270;20.978;2023-11-18T04:18:37;9.00;;;6.60;;
23531;SDS011;11943;52.270;20.978;2023-11-18T04:21:05;12.55;;;7.18;;
23531;SDS011;11943;52.270;20.978;2023-11-18T04:23:31;13.95;;;6.55;;
23531;SDS011;11943;52.270;20.978;2023-11-18T04:25:58;9.07;;;6.88;;
23531;SDS011;11943;52.270;20.978;2023-11-18T04:28:23;9.80;;;6.93;;
23531;SDS011;11943;52.270;20.978;2023-11-18T04:30:49;9.45;;;6.88;;
23531;SDS011;11943;52.270;20.978;2023-11-18T04:33:15;8.88;;;6.90;;
23531;SDS011;11943;52.270;20.978;2023-11-18T04:35:40;10.13;;;7.53;;
23531;SDS011;11943;52.270;20.978;2023-11-18T04:38:06;10.25;;;7.47;;
23531;SDS011;11943;52.270;20.978;2023-11-18T04:40:31;9.38;;;7.25;;
23531;SDS011;11943;52.270;20.978;2023-11-18T04:42:57;11.63;;;7.60;;
23531;SDS011;11943;52.270;20.978;2023-11-18T04:45:23;10.80;;;7.00;;
23531;SDS011;11943;52.270;20.978;2023-11-18T04:47:48;9.48;;;6.60;;
23531;SDS011;11943;52.270;20.978;2023-11-18T04:50:15;8.63;;;6.47;;
23531;SDS011;11943;52.270;20.978;2023-11-18T04:52:40;9.13;;;7.28;;
23531;SDS011;11943;52.270;20.978;2023-11-18T04:55:06;12.70;;;7.13;;
23531;SDS011;11943;52.270;20.978;2023-11-18T04:57:34;8.65;;;6.55;;
23531;SDS011;11943;52.270;20.978;2023-11-18T05:00:00;9.27;;;6.47;;
23531;SDS011;11943;52.270;20.978;2023-11-18T05:02:35;12.40;;;6.82;;
23531;SDS011;11943;52.270;20.978;2023-11-18T05:05:00;9.52;;;7.22;;
23531;SDS011;11943;52.270;20.978;2023-11-18T05:07:26;8.90;;;6.68;;
23531;SDS011;11943;52.270;20.978;2023-11-18T05:09:53;9.52;;;6.40;;
23531;SDS011;11943;52.270;20.978;2023-11-18T05:12:19;10.90;;;7.47;;
23531;SDS011;11943;52.270;20.978;2023-11-18T05:14:45;9.60;;;6.40;;
23531;SDS011;11943;52.270;20.978;2023-11-18T05:17:10;7.97;;;6.07;;
23531;SDS011;11943;52.270;20.978;2023-11-18T05:19:36;9.85;;;7.20;;
23531;SDS011;11943;52.270;20.978;2023-11-18T05:22:01;9.82;;;6.45;;
23531;SDS011;11943;52.270;20.978;2023-11-18T05:24:27;8.93;;;6.53;;
23531;SDS011;11943;52.270;20.978;2023-11-18T05:26:53;9.75;;;6.88;;
23531;SDS011;11943;52.270;20.978;2023-11-18T05:29:18;9.30;;;5.70;;
23531;SDS011;11943;52.270;20.978;2023-11-18T05:31:45;10.55;;;6.20;;
23531;SDS011;11943;52.270;20.978;2023-11-18T05:34:11;8.05;;;6.30;;
23531;SDS011;11943;52.270;20.978;2023-11-18T05:36:37;9.32;;;6.40;;
23531;SDS011;11943;52.270;20.978;2023-11-18T05:39:05;9.05;;;5.82;;
23531;SDS011;11943;52.270;20.978;2023-11-18T05:41:32;9.65;;;6.53;;
23531;SDS011;11943;52.270;20.978;2023-11-18T05:44:00;9.10;;;6.28;;
23531;SDS011;11943;52.270;20.978;2023-11-18T05:46:25;12.38;;;7.07;;
23531;SDS011;11943;52.270;20.978;2023-11-18T05:48:54;8.07;;;6.18;;
23531;SDS011;11943;52.270;20.978;2023-11-18T05:51:22;9.43;;;6.38;;
23531;SDS011;11943;52.270;20.978;2023-11-18T05:53:49;9.73;;;6.43;;
23531;SDS011;11943;52.270;20.978;2023-11-18T05:56:15;6.07;;;4.87;;
23531;SDS011;11943;52.270;20.978;2023-11-18T05:58:42;11.70;;;6.50;;
23531;SDS011;11943;52.270;20.978;2023-11-18T06:01:08;9.90;;;6.93;;
23531;SDS011;11943;52.270;20.978;2023-11-18T06:03:35;9.48;;;6.32;;
23531;SDS011;11943;52.270;20.978;2023-11-18T06:06:07;12.80;;;6.15;;
23531;SDS011;11943;52.270;20.978;2023-11-18T06:08:35;11.98;;;6.40;;
23531;SDS011;11943;52.270;20.978;2023-11-18T06:11:04;7.72;;;5.82;;
23531;SDS011;11943;52.270;20.978;2023-11-18T06:13:38;9.45;;;6.07;;
23531;SDS011;11943;52.270;20.978;2023-11-18T06:18:42;12.05;;;6.03;;
23531;SDS011;11943;52.270;20.978;2023-11-18T06:21:12;8.15;;;6.05;;
23531;SDS011;11943;52.270;20.978;2023-11-18T06:23:39;8.25;;;6.07;;
23531;SDS011;11943;52.270;20.978;2023-11-18T06:26:06;7.78;;;5.72;;
23531;SDS011;11943;52.270;20.978;2023-11-18T06:28:32;7.45;;;5.60;;
23531;SDS011;11943;52.270;20.978;2023-11-18T06:30:59;8.40;;;6.25;;
23531;SDS011;11943;52.270;20.978;2023-11-18T06:33:25;9.13;;;6.45;;
23531;SDS011;11943;52.270;20.978;2023-11-18T06:35:53;11.20;;;6.30;;
23531;SDS011;11943;52.270;20.978;2023-11-18T06:38:19;9.98;;;6.43;;
23531;SDS011;11943;52.270;20.978;2023-11-18T06:40:45;10.00;;;5.70;;
23531;SDS011;11943;52.270;20.978;2023-11-18T06:43:11;11.93;;;6.35;;
23531;SDS011;11943;52.270;20.978;2023-11-18T06:45:37;8.25;;;5.97;;
23531;SDS011;11943;52.270;20.978;2023-11-18T06:48:08;9.30;;;6.18;;
23531;SDS011;11943;52.270;20.978;2023-11-18T06:50:34;9.60;;;6.53;;
23531;SDS011;11943;52.270;20.978;2023-11-18T06:53:00;10.00;;;6.70;;
23531;SDS011;11943;52.270;20.978;2023-11-18T06:55:26;12.65;;;7.47;;
23531;SDS011;11943;52.270;20.978;2023-11-18T06:57:52;12.70;;;7.15;;
23531;SDS011;11943;52.270;20.978;2023-11-18T07:00:20;13.10;;;8.57;;
23531;SDS011;11943;52.270;20.978;2023-11-18T07:02:47;8.98;;;6.47;;
23531;SDS011;11943;52.270;20.978;2023-11-18T07:05:13;12.38;;;7.68;;
23531;SDS011;11943;52.270;20.978;2023-11-18T07:07:40;11.38;;;7.65;;
23531;SDS011;11943;52.270;20.978;2023-11-18T07:10:08;10.32;;;7.10;;
23531;SDS011;11943;52.270;20.978;2023-11-18T07:12:38;9.68;;;6.65;;
23531;SDS011;11943;52.270;20.978;2023-11-18T07:15:04;10.88;;;7.70;;
23531;SDS011;11943;52.270;20.978;2023-11-18T07:17:30;10.48;;;7.00;;
23531;SDS011;11943;52.270;20.978;2023-11-18T07:19:56;8.52;;;6.78;;
23531;SDS011;11943;52.270;20.978;2023-11-18T07:22:21;8.60;;;6.30;;
23531;SDS011;11943;52.270;20.978;2023-11-18T07:24:47;9.95;;;6.97;;
23531;SDS011;11943;52.270;20.978;2023-11-18T07:27:13;8.40;;;6.75;;
23531;SDS011;11943;52.270;20.978;2023-11-18T07:29:39;9.10;;;7.60;;
23531;SDS011;11943;52.270;20.978;2023-11-18T07:32:05;15.00;;;9.50;;
23531;SDS011;11943;52.270;20.978;2023-11-18T07:34:31;15.35;;;10.13;;
23531;SDS011;11943;52.270;20.978;2023-11-18T07:37:00;15.27;;;9.63;;
23531;SDS011;11943;52.270;20.978;2023-11-18T07:39:27;17.92;;;10.10;;
23531;SDS011;11943;52.270;20.978;2023-11-18T07:42:03;14.82;;;10.00;;
23531;SDS011;11943;52.270;20.978;2023-11-18T07:44:30;12.60;;;8.60;;
23531;SDS011;11943;52.270;20.978;2023-11-18T07:46:57;17.48;;;9.57;;
23531;SDS011;11943;52.270;20.978;2023-11-18T07:49:23;15.40;;;9.90;;
23531;SDS011;11943;52.270;20.978;2023-11-18T07:51:51;13.45;;;8.27;;
23531;SDS011;11943;52.270;20.978;2023-11-18T07:54:17;16.75;;;10.30;;
23531;SDS011;11943;52.270;20.978;2023-11-18T07:56:43;19.73;;;8.65;;
23531;SDS011;11943;52.270;20.978;2023-11-18T07:59:12;14.73;;;8.73;;
23531;SDS011;11943;52.270;20.978;2023-11-18T08:01:41;15.07;;;10.05;;
23531;SDS011;11943;52.270;20.978;2023-11-18T08:04:09;15.80;;;8.38;;
23531;SDS011;11943;52.270;20.978;2023-11-18T08:06:35;16.02;;;9.48;;
23531;SDS011;11943;52.270;20.978;2023-11-18T08:09:00;19.52;;;11.20;;
23531;SDS011;11943;52.270;20.978;2023-11-18T08:11:27;16.48;;;10.07;;
23531;SDS011;11943;52.270;20.978;2023-11-18T08:13:54;15.87;;;9.03;;
23531;SDS011;11943;52.270;20.978;2023-11-18T08:16:20;24.75;;;11.95;;
23531;SDS011;11943;52.270;20.978;2023-11-18T08:18:47;22.52;;;11.68;;
23531;SDS011;11943;52.270;20.978;2023-11-18T08:21:12;20.45;;;11.98;;
23531;SDS011;11943;52.270;20.978;2023-11-18T08:23:39;17.50;;;11.52;;
23531;SDS011;11943;52.270;20.978;2023-11-18T08:26:05;20.33;;;12.07;;
23531;SDS011;11943;52.270;20.978;2023-11-18T08:28:30;21.95;;;12.68;;
23531;SDS011;11943;52.270;20.978;2023-11-18T08:30:56;19.17;;;12.57;;
23531;SDS011;11943;52.270;20.978;2023-11-18T08:33:22;21.15;;;13.00;;
23531;SDS011;11943;52.270;20.978;2023-11-18T08:35:50;24.77;;;15.68;;
23531;SDS011;11943;52.270;20.978;2023-11-18T08:38:16;25.38;;;14.10;;
23531;SDS011;11943;52.270;20.978;2023-11-18T08:40:42;22.02;;;13.82;;
23531;SDS011;11943;52.270;20.978;2023-11-18T08:43:10;18.67;;;10.50;;
23531;SDS011;11943;52.270;20.978;2023-11-18T08:45:36;20.38;;;11.65;;
23531;SDS011;11943;52.270;20.978;2023-11-18T08:48:03;17.33;;;11.80;;
23531;SDS011;11943;52.270;20.978;2023-11-18T08:50:33;20.58;;;11.35;;
23531;SDS011;11943;52.270;20.978;2023-11-18T08:53:00;20.10;;;12.40;;
23531;SDS011;11943;52.270;20.978;2023-11-18T08:55:29;21.52;;;13.40;;
23531;SDS011;11943;52.270;20.978;2023-11-18T08:58:16;17.65;;;11.18;;
23531;SDS011;11943;52.270;20.978;2023-11-18T09:00:51;19.50;;;12.85;;
23531;SDS011;11943;52.270;20.978;2023-11-18T09:03:28;20.33;;;12.32;;
23531;SDS011;11943;52.270;20.978;2023-11-18T09:05:59;26.65;;;13.82;;
23531;SDS011;11943;52.270;20.978;2023-11-18T09:08:42;20.23;;;13.13;;
23531;SDS011;11943;52.270;20.978;2023-11-18T09:11:12;29.88;;;13.82;;
23531;SDS011;11943;52.270;20.978;2023-11-18T09:13:42;21.58;;;11.88;;
23531;SDS011;11943;52.270;20.978;2023-11-18T09:18:36;24.02;;;12.20;;
23531;SDS011;11943;52.270;20.978;2023-11-18T09:21:04;26.92;;;12.82;;
23531;SDS011;11943;52.270;20.978;2023-11-18T09:23:31;21.00;;;10.73;;
23531;SDS011;11943;52.270;20.978;2023-11-18T09:26:02;21.42;;;12.30;;
23531;SDS011;11943;52.270;20.978;2023-11-18T09:28:34;23.42;;;11.77;;
23531;SDS011;11943;52.270;20.978;2023-11-18T09:31:00;22.88;;;13.43;;
23531;SDS011;11943;52.270;20.978;2023-11-18T09:33:28;20.52;;;13.20;;
23531;SDS011;11943;52.270;20.978;2023-11-18T09:35:58;21.08;;;13.23;;
23531;SDS011;11943;52.270;20.978;2023-11-18T09:38:33;20.13;;;12.02;;
23531;SDS011;11943;52.270;20.978;2023-11-18T09:41:05;22.67;;;13.30;;
23531;SDS011;11943;52.270;20.978;2023-11-18T09:43:32;20.85;;;13.32;;
23531;SDS011;11943;52.270;20.978;2023-11-18T09:46:07;29.50;;;13.02;;
23531;SDS011;11943;52.270;20.978;2023-11-18T09:48:50;31.10;;;14.57;;
23531;SDS011;11943;52.270;20.978;2023-11-18T09:51:25;26.33;;;13.38;;
23531;SDS011;11943;52.270;20.978;2023-11-18T09:54:00;33.88;;;13.02;;
23531;SDS011;11943;52.270;20.978;2023-11-18T09:56:41;21.85;;;13.30;;
23531;SDS011;11943;52.270;20.978;2023-11-18T10:02:00;18.45;;;11.93;;
23531;SDS011;11943;52.270;20.978;2023-11-18T10:04:29;20.58;;;11.18;;
23531;SDS011;11943;52.270;20.978;2023-11-18T10:06:56;26.02;;;12.85;;
23531;SDS011;11943;52.270;20.978;2023-11-18T10:09:24;20.42;;;11.95;;
23531;SDS011;11943;52.270;20.978;2023-11-18T10:12:03;21.63;;;12.30;;
23531;SDS011;11943;52.270;20.978;2023-11-18T10:14:36;22.73;;;14.05;;
23531;SDS011;11943;52.270;20.978;2023-11-18T10:17:07;21.27;;;12.27;;
23531;SDS011;11943;52.270;20.978;2023-11-18T10:19:49;21.63;;;12.57;;
23531;SDS011;11943;52.270;20.978;2023-11-18T10:22:22;20.08;;;13.80;;
23531;SDS011;11943;52.270;20.978;2023-11-18T10:24:49;21.20;;;12.82;;
23531;SDS011;11943;52.270;20.978;2023-11-18T10:27:14;22.77;;;12.63;;
23531;SDS011;11943;52.270;20.978;2023-11-18T10:29:40;20.80;;;12.32;;
23531;SDS011;11943;52.270;20.978;2023-11-18T10:32:07;20.30;;;13.07;;
23531;SDS011;11943;52.270;20.978;2023-11-18T10:34:34;17.80;;;11.95;;
23531;SDS011;11943;52.270;20.978;2023-11-18T10:37:04;17.60;;;10.70;;
23531;SDS011;11943;52.270;20.978;2023-11-18T10:39:31;12.98;;;9.38;;
23531;SDS011;11943;52.270;20.978;2023-11-18T10:42:00;15.02;;;8.98;;
23531;SDS011;11943;52.270;20.978;2023-11-18T10:44:26;14.88;;;9.43;;
23531;SDS011;11943;52.270;20.978;2023-11-18T10:46:52;12.50;;;8.40;;
23531;SDS011;11943;52.270;20.978;2023-11-18T10:49:21;14.40;;;9.48;;
23531;SDS011;11943;52.270;20.978;2023-11-18T10:51:47;15.07;;;9.27;;
23531;SDS011;11943;52.270;20.978;2023-11-18T10:54:16;14.32;;;9.00;;
23531;SDS011;11943;52.270;20.978;2023-11-18T10:59:13;14.48;;;8.43;;
23531;SDS011;11943;52.270;20.978;2023-11-18T11:01:43;11.82;;;8.05;;
23531;SDS011;11943;52.270;20.978;2023-11-18T11:04:10;14.80;;;9.38;;
23531;SDS011;11943;52.270;20.978;2023-11-18T11:06:47;12.00;;;8.07;;
23531;SDS011;11943;52.270;20.978;2023-11-18T11:09:22;13.27;;;8.93;;
23531;SDS011;11943;52.270;20.978;2023-11-18T11:12:02;15.15;;;9.30;;
23531;SDS011;11943;52.270;20.978;2023-11-18T11:14:42;14.60;;;9.60;;
23531;SDS011;11943;52.270;20.978;2023-11-18T11:17:17;15.48;;;9.45;;
23531;SDS011;11943;52.270;20.978;2023-11-18T11:20:12;15.60;;;9.57;;
23531;SDS011;11943;52.270;20.978;2023-11-18T11:25:43;16.52;;;10.02;;
23531;SDS011;11943;52.270;20.978;2023-11-18T11:31:49;18.75;;;12.15;;
23531;SDS011;11943;52.270;20.978;2023-11-18T11:34:25;22.40;;;13.02;;
23531;SDS011;11943;52.270;20.978;2023-11-18T11:36:54;19.77;;;12.60;;
23531;SDS011;11943;52.270;20.978;2023-11-18T11:39:24;22.40;;;12.38;;
23531;SDS011;11943;52.270;20.978;2023-11-18T11:41:55;24.42;;;13.70;;
23531;SDS011;11943;52.270;20.978;2023-11-18T11:44:22;24.77;;;14.70;;
23531;SDS011;11943;52.270;20.978;2023-11-18T11:46:54;21.42;;;13.13;;
23531;SDS011;11943;52.270;20.978;2023-11-18T11:49:22;23.73;;;13.27;;
23531;SDS011;11943;52.270;20.978;2023-11-18T11:54:58;24.05;;;12.80;;
23531;SDS011;11943;52.270;20.978;2023-11-18T11:57:38;21.40;;;13.43;;
23531;SDS011;11943;52.270;20.978;2023-11-18T12:00:10;21.50;;;12.45;;
23531;SDS011;11943;52.270;20.978;2023-11-18T12:02:47;24.52;;;14.13;;
23531;SDS011;11943;52.270;20.978;2023-11-18T12:05:17;23.90;;;13.98;;
23531;SDS011;11943;52.270;20.978;2023-11-18T12:07:50;22.75;;;13.05;;
23531;SDS011;11943;52.270;20.978;2023-11-18T12:10:17;19.73;;;12.60;;
23531;SDS011;11943;52.270;20.978;2023-11-18T12:12:47;21.05;;;12.32;;
23531;SDS011;11943;52.270;20.978;2023-11-18T12:15:13;20.00;;;12.40;;
23531;SDS011;11943;52.270;20.978;2023-11-18T12:23:20;25.70;;;14.20;;
23531;SDS011;11943;52.270;20.978;2023-11-18T12:25:49;21.90;;;13.88;;
23531;SDS011;11943;52.270;20.978;2023-11-18T12:28:28;23.42;;;14.75;;
23531;SDS011;11943;52.270;20.978;2023-11-18T12:31:01;22.33;;;14.55;;
23531;SDS011;11943;52.270;20.978;2023-11-18T12:42:05;22.67;;;14.13;;
23531;SDS011;11943;52.270;20.978;2023-11-18T12:47:39;21.17;;;11.57;;
23531;SDS011;11943;52.270;20.978;2023-11-18T12:50:10;20.88;;;12.20;;
23531;SDS011;11943;52.270;20.978;2023-11-18T12:52:49;19.45;;;12.55;;
23531;SDS011;11943;52.270;20.978;2023-11-18T12:55:22;18.63;;;12.02;;
23531;SDS011;11943;52.270;20.978;2023-11-18T12:57:48;17.00;;;11.18;;
23531;SDS011;11943;52.270;20.978;2023-11-18T13:00:17;19.23;;;12.20;;
23531;SDS011;11943;52.270;20.978;2023-11-18T13:02:55;16.95;;;10.85;;
23531;SDS011;11943;52.270;20.978;2023-11-18T13:05:23;17.92;;;11.60;;
23531;SDS011;11943;52.270;20.978;2023-11-18T13:07:54;20.50;;;11.75;;
23531;SDS011;11943;52.270;20.978;2023-11-18T13:10:24;18.73;;;11.13;;
23531;SDS011;11943;52.270;20.978;2023-11-18T13:15:18;14.52;;;9.55;;
23531;SDS011;11943;52.270;20.978;2023-11-18T13:17:57;17.85;;;10.63;;
23531;SDS011;11943;52.270;20.978;2023-11-18T13:20:27;19.48;;;10.30;;
23531;SDS011;11943;52.270;20.978;2023-11-18T13:22:54;21.25;;;10.35;;
23531;SDS011;11943;52.270;20.978;2023-11-18T13:25:21;18.40;;;10.37;;
23531;SDS011;11943;52.270;20.978;2023-11-18T13:27:48;18.42;;;10.77;;
23531;SDS011;11943;52.270;20.978;2023-11-18T13:30:14;16.98;;;10.68;;
23531;SDS011;11943;52.270;20.978;2023-11-18T13:32:42;17.98;;;10.90;;
23531;SDS011;11943;52.270;20.978;2023-11-18T13:35:08;17.92;;;10.65;;
23531;SDS011;11943;52.270;20.978;2023-11-18T13:37:39;17.58;;;10.48;;
23531;SDS011;11943;52.270;20.978;2023-11-18T13:40:09;16.67;;;10.93;;
23531;SDS011;11943;52.270;20.978;2023-11-18T13:42:35;17.60;;;11.30;;
23531;SDS011;11943;52.270;20.978;2023-11-18T13:45:03;16.77;;;10.05;;
23531;SDS011;11943;52.270;20.978;2023-11-18T13:47:33;17.58;;;10.98;;
23531;SDS011;11943;52.270;20.978;2023-11-18T13:49:58;18.88;;;10.45;;
23531;SDS011;11943;52.270;20.978;2023-11-18T13:52:24;18.70;;;11.10;;
23531;SDS011;11943;52.270;20.978;2023-11-18T13:54:50;17.25;;;11.18;;
23531;SDS011;11943;52.270;20.978;2023-11-18T13:57:22;19.05;;;11.48;;
23531;SDS011;11943;52.270;20.978;2023-11-18T13:59:51;19.60;;;11.77;;
23531;SDS011;11943;52.270;20.978;2023-11-18T14:02:19;18.02;;;10.50;;
23531;SDS011;11943;52.270;20.978;2023-11-18T14:04:46;19.13;;;11.73;;
23531;SDS011;11943;52.270;20.978;2023-11-18T14:07:14;21.67;;;12.25;;
23531;SDS011;11943;52.270;20.978;2023-11-18T14:09:42;20.35;;;11.63;;
23531;SDS011;11943;52.270;20.978;2023-11-18T14:12:10;21.40;;;12.02;;
23531;SDS011;11943;52.270;20.978;2023-11-18T14:14:37;17.05;;;9.77;;
23531;SDS011;11943;52.270;20.978;2023-11-18T14:17:03;20.67;;;11.02;;
23531;SDS011;11943;52.270;20.978;2023-11-18T14:21:56;17.40;;;11.00;;
23531;SDS011;11943;52.270;20.978;2023-11-18T14:24:22;17.55;;;10.60;;
23531;SDS011;11943;52.270;20.978;2023-11-18T14:26:52;21.80;;;12.15;;
23531;SDS011;11943;52.270;20.978;2023-11-18T14:29:18;23.17;;;11.80;;
23531;SDS011;11943;52.270;20.978;2023-11-18T14:31:44;22.02;;;11.77;;
23531;SDS011;11943;52.270;20.978;2023-11-18T14:34:10;20.80;;;11.75;;
23531;SDS011;11943;52.270;20.978;2023-11-18T14:36:36;20.90;;;12.18;;
23531;SDS011;11943;52.270;20.978;2023-11-18T14:39:02;20.92;;;11.93;;
23531;SDS011;11943;52.270;20.978;2023-11-18T14:41:29;23.35;;;12.25;;
23531;SDS011;11943;52.270;20.978;2023-11-18T14:43:56;23.38;;;14.18;;
23531;SDS011;11943;52.270;20.978;2023-11-18T14:46:27;26.15;;;13.60;;
23531;SDS011;11943;52.270;20.978;2023-11-18T14:48:53;21.42;;;13.20;;
23531;SDS011;11943;52.270;20.978;2023-11-18T14:51:18;26.00;;;13.75;;
23531;SDS011;11943;52.270;20.978;2023-11-18T14:53:46;22.98;;;13.32;;
23531;SDS011;11943;52.270;20.978;2023-11-18T14:56:11;21.88;;;13.02;;
23531;SDS011;11943;52.270;20.978;2023-11-18T14:58:37;24.58;;;14.38;;
23531;SDS011;11943;52.270;20.978;2023-11-18T15:01:03;25.30;;;14.02;;
23531;SDS011;11943;52.270;20.978;2023-11-18T15:03:32;24.42;;;13.38;;
23531;SDS011;11943;52.270;20.978;2023-11-18T15:06:00;26.92;;;15.90;;
23531;SDS011;11943;52.270;20.978;2023-11-18T15:08:26;35.67;;;18.38;;
23531;SDS011;11943;52.270;20.978;2023-11-18T15:10:51;33.15;;;19.25;;
23531;SDS011;11943;52.270;20.978;2023-11-18T15:13:18;34.20;;;18.35;;
23531;SDS011;11943;52.270;20.978;2023-11-18T15:15:44;33.67;;;18.58;;
23531;SDS011;11943;52.270;20.978;2023-11-18T15:18:13;31.67;;;17.88;;